Time;durP1;ratioP1;P1;durP2;ratioP2;P2;SDS_P1;SDS_P2;PMS_P1;PMS_P2;Temp;Humidity;BMP_temperature;BMP_pressure;BME280_temperature;BME280_humidity;BME280_pressure;Samples;Min_cycle;Max_cycle;Signal;HPM_P1;HPM_P2
2022/07/10 00:01:55;;;;;;;5.63;1.40;;;13.70;99.90;;;;;;5037581;28;20495;-77
2022/07/10 00:04:21;;;;;;;3.10;0.80;;;13.70;99.90;;;;;;5038092;28;20044;-77
2022/07/10 00:06:46;;;;;;;2.17;0.60;;;13.70;99.90;;;;;;5054718;28;20045;-76
2022/07/10 00:09:13;;;;;;;2.83;0.60;;;13.70;99.90;;;;;;5054547;28;20049;-77
2022/07/10 00:11:40;;;;;;;4.25;0.90;;;13.70;99.90;;;;;;5054350;28;20048;-77
2022/07/10 00:14:06;;;;;;;1.48;0.60;;;13.70;99.90;;;;;;5037076;28;20052;-78
2022/07/10 00:16:31;;;;;;;5.28;0.88;;;13.80;99.90;;;;;;5070988;28;20048;-77
2022/07/10 00:18:57;;;;;;;6.53;1.70;;;13.80;99.90;;;;;;5052451;28;20044;-77
2022/07/10 00:21:23;;;;;;;2.60;0.80;;;13.90;99.90;;;;;;5035701;28;20040;-78
2022/07/10 00:23:48;;;;;;;3.40;0.70;;;13.80;99.90;;;;;;5048329;28;20114;-77
2022/07/10 00:26:14;;;;;;;4.57;1.00;;;13.80;99.90;;;;;;5071285;28;20128;-77
2022/07/10 00:28:40;;;;;;;4.25;0.90;;;13.80;99.90;;;;;;5037111;28;20037;-77
2022/07/10 00:31:05;;;;;;;4.63;1.13;;;13.80;99.90;;;;;;5056734;28;20102;-78
2022/07/10 00:33:32;;;;;;;5.97;1.33;;;13.80;99.90;;;;;;5052591;28;20396;-77
2022/07/10 00:35:58;;;;;;;;;;;13.80;99.90;;;;;;5054854;28;20044;-77
2022/07/10 00:38:24;;;;;;;4.18;1.00;;;13.80;99.90;;;;;;5048874;28;19921;-76
2022/07/10 00:40:49;;;;;;;4.20;1.00;;;13.80;99.90;;;;;;5035489;28;20045;-77
2022/07/10 00:43:15;;;;;;;4.07;0.80;;;13.90;99.90;;;;;;5037339;28;20044;-77
2022/07/10 00:45:41;;;;;;;2.72;0.85;;;13.90;99.90;;;;;;5052314;28;20884;-77
2022/07/10 00:48:11;;;;;;;3.10;0.80;;;13.90;99.90;;;;;;5053038;28;20079;-77
2022/07/10 00:50:38;;;;;;;4.15;0.80;;;13.90;99.90;;;;;;5053167;28;20048;-77
2022/07/10 00:53:04;;;;;;;5.50;1.25;;;13.90;99.90;;;;;;5053996;28;20490;-77
2022/07/10 00:55:30;;;;;;;;;;;13.80;99.90;;;;;;5037261;28;20041;-77
2022/07/10 00:57:56;;;;;;;5.25;1.17;;;13.80;99.90;;;;;;5035543;28;19940;-77
2022/07/10 01:00:23;;;;;;;3.47;0.80;;;13.80;99.90;;;;;;5037344;28;20033;-77
2022/07/10 01:02:49;;;;;;;5.10;1.00;;;13.70;99.90;;;;;;5053750;28;20048;-77
2022/07/10 01:05:15;;;;;;;4.15;0.90;;;13.70;99.90;;;;;;5046588;28;20362;-77
2022/07/10 01:07:40;;;;;;;2.10;0.70;;;13.70;99.90;;;;;;5044263;28;20040;-78
2022/07/10 01:10:06;;;;;;;2.03;0.70;;;13.60;99.90;;;;;;5036466;28;20051;-77
2022/07/10 01:12:33;;;;;;;3.28;0.73;;;13.60;99.90;;;;;;5037143;28;20428;-77
2022/07/10 01:14:59;;;;;;;2.15;0.77;;;13.50;99.90;;;;;;5035094;28;20119;-77
2022/07/10 01:17:25;;;;;;;4.28;0.82;;;13.50;99.90;;;;;;5052476;28;20189;-78
2022/07/10 01:19:51;;;;;;;4.68;0.85;;;13.60;99.90;;;;;;5053106;28;20037;-77
2022/07/10 01:22:17;;;;;;;2.90;0.77;;;13.50;99.90;;;;;;5053153;28;20148;-77
2022/07/10 01:24:42;;;;;;;4.68;1.15;;;13.50;99.90;;;;;;5036518;28;20411;-77
2022/07/10 01:27:08;;;;;;;3.90;1.00;;;13.50;99.90;;;;;;5050529;28;20051;-77
2022/07/10 01:29:36;;;;;;;2.75;0.90;;;13.40;99.90;;;;;;5051568;28;20131;-77
2022/07/10 01:32:02;;;;;;;4.30;0.80;;;13.40;99.90;;;;;;5053074;28;20135;-77
2022/07/10 01:34:28;;;;;;;2.50;0.80;;;13.40;99.90;;;;;;5052203;28;20467;-78
2022/07/10 01:36:54;;;;;;;2.55;0.60;;;13.30;99.90;;;;;;5051039;28;20455;-77
2022/07/10 01:39:19;;;;;;;3.00;0.65;;;13.30;99.90;;;;;;5052426;28;20101;-78
2022/07/10 01:41:45;;;;;;;1.67;0.50;;;13.30;99.90;;;;;;5052805;28;20483;-77
2022/07/10 01:44:11;;;;;;;2.28;0.60;;;13.20;99.90;;;;;;5051799;28;20102;-77
2022/07/10 01:46:46;;;;;;;1.88;0.52;;;13.20;99.90;;;;;;5050507;28;20036;-77
2022/07/10 01:49:12;;;;;;;3.15;0.68;;;13.20;99.90;;;;;;5049975;28;20157;-77
2022/07/10 01:51:38;;;;;;;3.72;0.90;;;13.20;99.90;;;;;;5052224;28;20495;-77
2022/07/10 01:54:03;;;;;;;3.88;0.75;;;13.20;99.90;;;;;;5035550;28;20040;-77
2022/07/10 01:56:29;;;;;;;3.33;0.65;;;13.20;99.90;;;;;;5035466;28;20036;-77
2022/07/10 01:58:55;;;;;;;1.67;0.60;;;13.20;99.90;;;;;;5034755;28;20114;-77
2022/07/10 02:01:20;;;;;;;3.85;0.75;;;13.10;99.90;;;;;;5051043;28;20105;-77
2022/07/10 02:06:30;;;;;;;1.98;0.45;;;13.10;99.90;;;;;;5051887;28;20063;-77
2022/07/10 02:08:56;;;;;;;3.85;0.77;;;13.00;99.90;;;;;;5034596;28;20038;-77
2022/07/10 02:11:21;;;;;;;2.22;0.70;;;13.00;99.90;;;;;;5040622;28;20425;-76
2022/07/10 02:13:47;;;;;;;3.05;0.52;;;13.00;99.90;;;;;;5050524;28;20531;-77
2022/07/10 02:16:13;;;;;;;2.53;0.90;;;13.00;99.90;;;;;;5050835;28;20032;-77
2022/07/10 02:18:39;;;;;;;;;;;13.00;99.90;;;;;;5056027;28;20059;-76
2022/07/10 02:21:05;;;;;;;2.17;0.63;;;13.00;99.90;;;;;;5058677;28;20381;-77
2022/07/10 02:23:31;;;;;;;5.63;0.98;;;13.00;99.90;;;;;;5065832;28;20786;-76
2022/07/10 02:25:57;;;;;;;4.18;1.15;;;13.00;99.90;;;;;;5057721;28;20123;-77
2022/07/10 02:28:22;;;;;;;3.42;0.80;;;13.00;99.90;;;;;;5050803;28;20045;-77
2022/07/10 02:30:48;;;;;;;3.08;0.77;;;13.00;99.90;;;;;;5041077;28;20420;-77
2022/07/10 02:33:14;;;;;;;2.83;0.70;;;13.00;99.90;;;;;;5056636;28;20059;-77
2022/07/10 02:35:39;;;;;;;4.00;0.82;;;13.00;99.90;;;;;;5057185;28;20060;-77
2022/07/10 02:38:05;;;;;;;2.33;0.60;;;13.00;99.90;;;;;;5041633;28;20562;-77
2022/07/10 02:40:30;;;;;;;2.95;0.70;;;12.90;99.90;;;;;;5057564;28;20101;-77
2022/07/10 02:42:56;;;;;;;3.60;0.82;;;13.00;99.90;;;;;;5058095;28;20037;-77
2022/07/10 02:45:22;;;;;;;2.25;0.75;;;13.10;99.90;;;;;;5040413;28;20044;-77
2022/07/10 02:47:47;;;;;;;4.85;0.70;;;12.90;99.90;;;;;;5057416;28;20039;-76
2022/07/10 02:50:13;;;;;;;2.83;0.70;;;13.10;99.90;;;;;;5057613;28;20051;-76
2022/07/10 02:52:39;;;;;;;2.35;0.50;;;13.00;99.90;;;;;;5057870;28;20038;-77
2022/07/10 02:55:05;;;;;;;2.38;0.73;;;13.10;99.90;;;;;;5075677;28;20499;-76
2022/07/10 02:57:30;;;;;;;3.45;0.70;;;13.10;99.90;;;;;;5008479;28;20105;-77
2022/07/10 02:59:56;;;;;;;2.55;0.60;;;13.00;99.90;;;;;;5057890;28;20037;-76
2022/07/10 03:02:22;;;;;;;2.97;0.80;;;13.10;99.90;;;;;;5058410;28;20711;-76
2022/07/10 03:04:47;;;;;;;3.22;0.63;;;13.10;99.90;;;;;;5040359;28;20051;-77
2022/07/10 03:07:13;;;;;;;1.50;0.55;;;13.20;99.90;;;;;;5056777;28;20178;-76
2022/07/10 03:09:39;;;;;;;1.95;0.68;;;13.20;99.90;;;;;;5057244;28;20055;-76
2022/07/10 03:12:05;;;;;;;2.20;0.63;;;13.10;99.90;;;;;;5075687;28;20036;-76
2022/07/10 03:14:31;;;;;;;3.22;0.70;;;13.10;99.90;;;;;;5041010;28;20055;-77
2022/07/10 03:16:56;;;;;;;3.70;0.77;;;13.20;99.90;;;;;;5057922;28;20028;-76
2022/07/10 03:19:22;;;;;;;2.65;0.70;;;13.30;99.90;;;;;;5058425;28;20036;-76
2022/07/10 03:21:48;;;;;;;3.35;0.70;;;13.30;99.90;;;;;;5075902;28;20098;-76
2022/07/10 03:24:13;;;;;;;2.00;0.50;;;13.30;99.90;;;;;;5040735;28;20051;-76
2022/07/10 03:26:39;;;;;;;3.60;0.80;;;13.40;99.90;;;;;;5041204;28;20047;-76
2022/07/10 03:29:04;;;;;;;6.20;1.17;;;13.40;99.90;;;;;;5023131;28;20466;-75
2022/07/10 03:31:31;;;;;;;3.72;0.90;;;13.50;99.90;;;;;;5055040;28;20048;-76
2022/07/10 03:33:56;;;;;;;3.67;0.82;;;13.50;99.90;;;;;;5054153;28;20115;-76
2022/07/10 03:36:22;;;;;;;3.83;0.80;;;13.60;99.90;;;;;;5053586;28;20128;-76
2022/07/10 03:38:48;;;;;;;4.38;0.93;;;13.70;99.90;;;;;;5036855;28;20112;-76
2022/07/10 03:41:14;;;;;;;3.55;0.85;;;13.80;99.90;;;;;;5037851;28;20025;-76
2022/07/10 03:43:40;;;;;;;4.90;0.70;;;13.80;99.90;;;;;;5072756;28;20107;-76
2022/07/10 03:46:05;;;;;;;1.38;0.60;;;14.00;99.90;;;;;;5054219;28;20068;-77
2022/07/10 03:48:32;;;;;;;1.50;0.60;;;13.80;99.90;;;;;;5037517;28;20571;-76
2022/07/10 03:50:58;;;;;;;;;;;14.10;99.90;;;;;;5058541;28;20044;-77
2022/07/10 03:53:24;;;;;;;6.20;1.10;;;13.80;99.90;;;;;;5053902;28;19963;-76
2022/07/10 03:55:50;;;;;;;4.55;0.70;;;14.10;99.90;;;;;;5037529;28;20526;-76
2022/07/10 03:58:15;;;;;;;3.47;0.75;;;14.00;99.90;;;;;;5037543;28;20047;-77
2022/07/10 04:00:42;;;;;;;1.33;0.70;;;14.30;99.90;;;;;;5053813;28;20028;-76
2022/07/10 04:03:08;;;;;;;3.03;0.75;;;14.40;99.90;;;;;;5036295;28;20078;-77
2022/07/10 04:05:35;;;;;;;4.20;0.80;;;14.20;99.90;;;;;;5053714;28;20235;-77
2022/07/10 04:08:01;;;;;;;;;;;14.20;99.90;;;;;;5053479;28;20045;-76
2022/07/10 04:10:27;;;;;;;2.03;0.65;;;14.60;99.90;;;;;;5051654;28;19943;-76
2022/07/10 04:12:54;;;;;;;3.33;0.93;;;14.60;99.90;;;;;;5035847;28;20847;-76
2022/07/10 04:15:19;;;;;;;4.95;1.17;;;14.50;99.90;;;;;;5053787;28;20050;-75
2022/07/10 04:17:46;;;;;;;4.18;1.13;;;14.50;99.90;;;;;;5053197;28;20040;-76
2022/07/10 04:20:12;;;;;;;5.28;1.27;;;14.70;99.90;;;;;;5052616;28;20123;-77
2022/07/10 04:22:38;;;;;;;5.75;0.98;;;14.50;99.90;;;;;;5053160;28;20392;-78
2022/07/10 04:25:05;;;;;;;5.63;1.25;;;14.50;99.90;;;;;;5053734;28;20044;-78
2022/07/10 04:27:31;;;;;;;3.95;1.65;;;14.50;99.90;;;;;;5037212;28;20044;-77
2022/07/10 04:29:57;;;;;;;5.95;1.27;;;14.50;99.90;;;;;;5051521;28;20040;-78
2022/07/10 04:32:22;;;;;;;4.45;0.75;;;14.60;99.90;;;;;;5051646;28;20084;-78
2022/07/10 04:34:48;;;;;;;5.10;1.05;;;14.60;99.90;;;;;;5052908;28;20123;-77
2022/07/10 04:37:14;;;;;;;2.30;0.85;;;14.60;99.90;;;;;;5053438;28;20039;-77
2022/07/10 04:39:40;;;;;;;5.75;1.17;;;14.60;99.90;;;;;;5053981;28;20777;-78
2022/07/10 04:42:07;;;;;;;5.32;1.17;;;14.60;99.90;;;;;;5053040;28;20044;-78
2022/07/10 04:44:34;;;;;;;5.47;0.98;;;14.60;99.90;;;;;;5052201;28;20037;-78
2022/07/10 04:47:00;;;;;;;3.08;1.00;;;14.70;99.90;;;;;;5054496;28;20399;-77
2022/07/10 04:49:25;;;;;;;4.53;1.00;;;14.60;99.90;;;;;;5052556;28;20049;-77
2022/07/10 04:51:51;;;;;;;2.78;0.93;;;14.80;99.90;;;;;;5036156;28;20053;-77
2022/07/10 04:54:17;;;;;;;3.83;1.08;;;14.80;99.90;;;;;;5050220;28;20399;-77
2022/07/10 04:56:43;;;;;;;5.95;1.58;;;14.80;99.90;;;;;;5053789;28;20440;-77
2022/07/10 04:59:09;;;;;;;2.95;0.95;;;14.90;99.90;;;;;;5034404;28;20183;-77
2022/07/10 05:01:37;;;;;;;4.75;1.00;;;14.90;99.90;;;;;;5053347;28;20115;-77
2022/07/10 05:04:03;;;;;;;7.68;1.65;;;15.00;99.90;;;;;;5053054;28;20400;-77
2022/07/10 05:06:29;;;;;;;4.35;1.05;;;15.00;99.90;;;;;;5052464;28;20059;-76
2022/07/10 05:08:55;;;;;;;3.65;1.10;;;15.00;99.90;;;;;;5052883;28;20357;-77
2022/07/10 05:11:21;;;;;;;4.43;1.20;;;15.00;99.90;;;;;;5036232;28;20082;-77
2022/07/10 05:13:48;;;;;;;;;;;15.00;99.90;;;;;;5051672;28;20045;-76
2022/07/10 05:16:17;;;;;;;4.10;1.10;;;15.10;99.90;;;;;;5052214;28;19916;-76
2022/07/10 05:18:43;;;;;;;4.05;0.93;;;15.00;99.90;;;;;;5036066;28;20078;-77
2022/07/10 05:21:09;;;;;;;4.68;1.02;;;15.00;99.90;;;;;;5052775;28;20098;-77
2022/07/10 05:23:37;;;;;;;3.83;1.15;;;15.00;99.90;;;;;;5051110;28;20043;-77
2022/07/10 05:26:02;;;;;;;2.78;0.90;;;15.00;99.90;;;;;;5051664;28;20045;-77
2022/07/10 05:28:28;;;;;;;4.07;1.10;;;15.00;99.90;;;;;;5053109;28;20098;-77
2022/07/10 05:30:53;;;;;;;2.15;0.80;;;15.00;99.90;;;;;;5037259;28;20040;-76
2022/07/10 05:33:19;;;;;;;3.47;0.98;;;15.00;99.90;;;;;;5035802;28;20487;-77
2022/07/10 05:35:45;;;;;;;2.53;0.77;;;15.00;99.90;;;;;;5051339;28;20050;-77
2022/07/10 05:38:11;;;;;;;3.05;0.60;;;15.10;99.90;;;;;;5052668;28;20066;-77
2022/07/10 05:40:37;;;;;;;4.95;1.00;;;15.10;99.90;;;;;;5046263;28;20041;-77
2022/07/10 05:43:03;;;;;;;2.58;0.95;;;15.10;99.90;;;;;;5046841;28;20036;-77
2022/07/10 05:45:29;;;;;;;;;;;15.10;99.90;;;;;;5044894;28;20113;-77
2022/07/10 05:47:55;;;;;;;6.00;1.48;;;15.20;99.90;;;;;;5062561;28;20320;-77
2022/07/10 05:50:20;;;;;;;4.50;1.00;;;15.20;99.90;;;;;;5058545;28;20036;-77
2022/07/10 05:52:46;;;;;;;6.82;1.25;;;15.20;99.90;;;;;;5051221;28;20044;-77
2022/07/10 05:55:12;;;;;;;4.72;0.95;;;15.20;99.90;;;;;;5051778;28;20037;-76
2022/07/10 05:57:38;;;;;;;4.90;0.90;;;15.20;99.90;;;;;;5051160;28;20052;-77
2022/07/10 06:00:05;;;;;;;4.75;1.10;;;15.20;99.90;;;;;;5068810;28;20059;-76
2022/07/10 06:02:31;;;;;;;5.53;1.10;;;15.20;99.90;;;;;;5053390;28;20064;-77
2022/07/10 06:04:56;;;;;;;3.75;1.10;;;15.20;99.90;;;;;;5055025;28;20186;-76
2022/07/10 06:07:22;;;;;;;2.42;0.75;;;15.20;99.90;;;;;;5052846;28;20056;-77
2022/07/10 06:09:48;;;;;;;2.35;0.80;;;15.20;99.90;;;;;;5050283;28;20063;-77
2022/07/10 06:12:15;;;;;;;2.33;0.73;;;15.20;99.90;;;;;;5051285;28;20032;-77
2022/07/10 06:14:42;;;;;;;3.15;1.10;;;15.20;99.90;;;;;;5053742;28;20097;-77
2022/07/10 06:17:07;;;;;;;5.13;1.05;;;15.20;99.90;;;;;;5050977;28;20472;-77
2022/07/10 06:19:33;;;;;;;3.50;1.00;;;15.20;99.90;;;;;;5053508;28;20040;-77
2022/07/10 06:24:43;;;;;;;3.22;1.10;;;15.30;99.90;;;;;;5053933;28;20112;-75
2022/07/10 06:27:09;;;;;;;2.97;0.90;;;15.30;99.90;;;;;;5052077;28;20389;-77
2022/07/10 06:29:35;;;;;;;3.15;0.90;;;15.40;99.90;;;;;;5052480;28;20051;-77
2022/07/10 06:32:01;;;;;;;;;;;15.40;99.90;;;;;;5052248;28;20119;-77
2022/07/10 06:34:26;;;;;;;2.33;0.77;;;15.40;99.90;;;;;;5050334;28;20081;-70
2022/07/10 06:36:52;;;;;;;4.05;0.93;;;15.40;99.90;;;;;;5050923;28;20036;-70
2022/07/10 06:39:18;;;;;;;3.80;1.08;;;15.40;99.90;;;;;;5051449;28;20133;-70
2022/07/10 06:41:44;;;;;;;4.65;1.13;;;15.40;99.90;;;;;;5044209;28;20036;-69
2022/07/10 06:44:09;;;;;;;2.47;0.88;;;15.40;99.90;;;;;;5033434;28;20040;-69
2022/07/10 06:46:35;;;;;;;3.38;0.90;;;15.40;99.90;;;;;;5033606;28;20086;-69
2022/07/10 06:49:01;;;;;;;4.72;1.05;;;15.40;99.90;;;;;;5033049;28;20138;-70
2022/07/10 06:51:27;;;;;;;3.78;0.93;;;15.50;99.90;;;;;;5051850;28;20182;-70
2022/07/10 06:53:52;;;;;;;4.85;0.70;;;15.50;99.90;;;;;;5068450;28;20336;-70
2022/07/10 06:56:18;;;;;;;2.35;0.68;;;15.60;99.90;;;;;;5033618;28;20048;-71
2022/07/10 06:58:44;;;;;;;;;;;15.70;99.90;;;;;;5033666;28;20036;-70
2022/07/10 07:01:10;;;;;;;2.50;0.80;;;15.50;99.90;;;;;;5048555;28;19916;-68
2022/07/10 07:03:35;;;;;;;3.83;0.65;;;15.60;99.90;;;;;;5049577;28;20044;-70
2022/07/10 07:06:02;;;;;;;3.90;0.80;;;15.70;99.90;;;;;;5048842;28;20128;-69
2022/07/10 07:08:31;;;;;;;3.20;0.93;;;15.60;99.90;;;;;;5061532;28;20123;-69
2022/07/10 07:10:57;;;;;;;4.63;1.02;;;15.60;99.90;;;;;;5045664;28;20043;-69
2022/07/10 07:13:23;;;;;;;3.88;0.75;;;15.50;99.90;;;;;;5034241;28;20049;-71
2022/07/10 07:16:00;;;;;;;3.42;0.60;;;15.40;99.90;;;;;;5054425;28;20464;-72
2022/07/10 07:18:32;;;;;;;3.40;0.90;;;15.20;99.90;;;;;;5052792;28;20387;-71
2022/07/10 07:23:45;;;;;;;3.28;0.65;;;14.90;99.90;;;;;;5037969;28;20068;-71
2022/07/10 07:26:11;;;;;;;1.92;0.60;;;14.80;99.90;;;;;;5069693;28;20039;-79
2022/07/10 07:28:37;;;;;;;1.55;0.50;;;14.80;99.90;;;;;;5038798;28;20063;-75
2022/07/10 07:31:03;;;;;;;3.10;0.57;;;14.80;99.90;;;;;;5054404;28;20051;-75
2022/07/10 07:33:30;;;;;;;4.95;0.70;;;14.90;99.90;;;;;;5038090;28;20403;-75
2022/07/10 07:35:56;;;;;;;2.42;0.70;;;14.90;99.90;;;;;;5052635;28;20058;-75
2022/07/10 07:38:22;;;;;;;2.63;0.80;;;14.70;99.90;;;;;;5053940;28;20040;-75
2022/07/10 07:40:47;;;;;;;3.72;0.82;;;14.70;99.90;;;;;;5057337;28;20049;-75
2022/07/10 07:43:13;;;;;;;2.70;0.70;;;14.90;99.90;;;;;;5052397;28;20044;-74
2022/07/10 07:45:39;;;;;;;2.42;0.60;;;15.30;99.90;;;;;;5052312;28;20074;-75
2022/07/10 07:48:05;;;;;;;4.50;0.93;;;15.40;99.90;;;;;;5050902;28;20127;-74
2022/07/10 07:50:33;;;;;;;4.20;1.05;;;15.20;99.90;;;;;;5055417;28;20083;-74
2022/07/10 07:53:03;;;;;;;2.63;0.65;;;15.30;99.90;;;;;;5068232;28;20044;-74
2022/07/10 07:55:30;;;;;;;3.53;0.75;;;15.10;99.90;;;;;;5061016;28;20044;-74
2022/07/10 07:57:57;;;;;;;2.58;0.80;;;15.20;99.90;;;;;;5040090;28;20428;-74
2022/07/10 08:00:24;;;;;;;2.22;0.75;;;15.40;99.90;;;;;;5054807;28;20934;-74
2022/07/10 08:02:51;;;;;;;1.73;0.60;;;15.40;99.90;;;;;;5048454;28;20053;-74
2022/07/10 08:05:18;;;;;;;2.03;0.70;;;15.80;99.90;;;;;;5049158;28;20056;-74
2022/07/10 08:07:51;;;;;;;2.08;0.70;;;15.50;99.90;;;;;;5050729;28;20052;-75
2022/07/10 08:10:20;;;;;;;1.88;0.60;;;15.40;99.90;;;;;;5065293;28;20739;-74
2022/07/10 08:12:46;;;;;;;2.42;0.63;;;15.40;99.90;;;;;;5046926;28;20076;-74
2022/07/10 08:15:15;;;;;;;2.88;0.68;;;15.80;99.90;;;;;;5047009;28;20147;-74
2022/07/10 08:17:41;;;;;;;2.10;0.60;;;15.60;99.90;;;;;;5052049;28;20087;-74
2022/07/10 08:20:08;;;;;;;;;;;15.30;99.90;;;;;;5052428;28;20045;-75
2022/07/10 08:22:33;;;;;;;2.00;0.60;;;15.60;99.90;;;;;;5052006;28;20011;-75
2022/07/10 08:24:59;;;;;;;1.77;0.50;;;15.70;99.90;;;;;;5033118;28;20120;-75
2022/07/10 08:27:25;;;;;;;2.65;0.40;;;15.50;99.90;;;;;;5026841;28;20137;-75
2022/07/10 08:29:51;;;;;;;2.63;0.65;;;15.80;99.90;;;;;;5051167;28;20113;-75
2022/07/10 08:32:17;;;;;;;1.83;0.40;;;15.90;99.90;;;;;;5050893;28;20113;-76
2022/07/10 08:34:43;;;;;;;3.92;1.30;;;15.90;99.90;;;;;;5051763;28;20384;-75
2022/07/10 08:37:08;;;;;;;1.38;0.60;;;16.00;99.90;;;;;;5050380;28;20039;-74
2022/07/10 08:39:34;;;;;;;1.92;0.40;;;16.10;99.90;;;;;;5050382;28;20047;-74
2022/07/10 08:42:00;;;;;;;;;;;16.20;99.90;;;;;;5033432;28;20041;-73
2022/07/10 08:44:27;;;;;;;1.98;0.50;;;16.20;99.90;;;;;;5049110;28;19931;-74
2022/07/10 08:46:53;;;;;;;1.67;0.60;;;16.20;99.90;;;;;;5045444;28;20053;-73
2022/07/10 08:49:26;;;;;;;2.88;0.65;;;16.30;99.90;;;;;;5046756;28;20055;-74
2022/07/10 08:52:02;;;;;;;1.50;0.43;;;16.30;99.90;;;;;;5029289;28;20156;-74
2022/07/10 08:54:29;;;;;;;2.20;0.45;;;16.50;99.90;;;;;;5029626;28;20418;-74
2022/07/10 08:56:57;;;;;;;1.60;0.40;;;16.60;99.90;;;;;;5030473;28;20211;-74
2022/07/10 08:59:23;;;;;;;1.73;0.50;;;16.60;99.90;;;;;;5050555;28;20450;-73
2022/07/10 09:01:49;;;;;;;1.80;0.40;;;16.60;99.90;;;;;;5048168;28;20041;-73
2022/07/10 09:04:19;;;;;;;2.72;0.90;;;16.50;99.90;;;;;;5049953;28;20048;-73
2022/07/10 09:06:45;;;;;;;3.47;0.75;;;16.50;99.90;;;;;;5051248;28;20391;-73
2022/07/10 09:09:11;;;;;;;2.35;0.50;;;16.40;99.90;;;;;;5049423;28;20045;-73
2022/07/10 09:11:40;;;;;;;2.58;0.50;;;16.50;99.90;;;;;;5029840;28;20044;-73
2022/07/10 09:14:11;;;;;;;2.67;0.63;;;16.60;99.90;;;;;;5048386;28;20182;-74
2022/07/10 09:16:39;;;;;;;1.98;0.50;;;16.60;99.90;;;;;;5047513;28;20074;-73
2022/07/10 09:19:25;;;;;;;2.47;0.50;;;16.60;99.90;;;;;;5046418;28;20120;-73
2022/07/10 09:22:05;;;;;;;0.88;0.40;;;16.50;99.90;;;;;;5045761;28;20111;-73
2022/07/10 09:24:39;;;;;;;1.38;0.40;;;16.40;99.90;;;;;;5048249;28;20062;-73
2022/07/10 09:27:06;;;;;;;1.58;0.40;;;16.30;99.90;;;;;;5048788;28;20033;-73
2022/07/10 09:29:45;;;;;;;;;;;16.40;99.90;;;;;;5030941;28;20044;-73
2022/07/10 09:32:12;;;;;;;2.50;0.80;;;16.20;99.90;;;;;;5045761;28;20006;-73
2022/07/10 09:34:39;;;;;;;2.70;0.85;;;15.80;99.90;;;;;;5046192;28;20068;-73
2022/07/10 09:37:30;;;;;;;2.50;0.80;;;15.70;99.90;;;;;;5043110;28;20557;-74
2022/07/10 09:40:03;;;;;;;1.67;0.75;;;15.40;99.90;;;;;;5045913;28;20033;-73
2022/07/10 09:42:31;;;;;;;1.48;0.60;;;15.30;99.90;;;;;;5044158;28;20033;-74
2022/07/10 09:45:12;;;;;;;3.53;0.95;;;15.10;99.90;;;;;;5031980;28;20238;-73
2022/07/10 09:47:42;;;;;;;1.90;0.77;;;15.20;99.90;;;;;;5045152;28;20131;-73
2022/07/10 09:50:29;;;;;;;2.90;0.68;;;15.10;99.90;;;;;;5047017;28;20128;-73
2022/07/10 09:52:57;;;;;;;1.10;0.60;;;15.20;99.90;;;;;;5046056;28;20084;-74
2022/07/10 09:55:29;;;;;;;2.28;0.80;;;15.10;99.90;;;;;;5042891;28;20049;-75
2022/07/10 09:58:09;;;;;;;2.35;0.90;;;15.10;99.90;;;;;;5053752;28;20099;-75
2022/07/10 10:00:45;;;;;;;1.92;0.70;;;15.10;99.90;;;;;;5031271;28;20046;-75
2022/07/10 10:03:11;;;;;;;2.53;0.80;;;14.70;99.90;;;;;;5046538;28;20507;-74
2022/07/10 10:05:43;;;;;;;2.05;0.70;;;15.00;99.90;;;;;;5049874;28;20045;-75
2022/07/10 10:08:27;;;;;;;3.63;0.90;;;15.10;99.90;;;;;;5046359;28;20079;-76
2022/07/10 10:10:54;;;;;;;3.45;1.00;;;15.10;99.90;;;;;;5033286;28;20282;-76
2022/07/10 10:13:22;;;;;;;1.45;0.65;;;14.80;99.90;;;;;;5046230;28;20045;-75
2022/07/10 10:15:49;;;;;;;3.17;0.90;;;15.30;99.90;;;;;;5030563;28;20485;-76
2022/07/10 10:18:18;;;;;;;4.07;1.15;;;15.50;99.90;;;;;;5048216;28;20039;-75
2022/07/10 10:20:46;;;;;;;5.15;1.50;;;15.70;99.90;;;;;;5047447;28;20041;-75
2022/07/10 10:23:22;;;;;;;4.38;1.25;;;15.20;99.90;;;;;;5046989;28;20041;-75
2022/07/10 10:25:50;;;;;;;2.92;1.13;;;15.50;99.90;;;;;;5046261;28;20506;-76
2022/07/10 10:28:20;;;;;;;3.58;1.30;;;15.70;99.90;;;;;;5035002;28;20036;-75
2022/07/10 10:30:47;;;;;;;2.65;1.13;;;16.00;99.90;;;;;;5045494;28;20056;-75
2022/07/10 10:33:31;;;;;;;2.83;1.10;;;15.50;99.90;;;;;;5048287;28;20044;-75
2022/07/10 10:36:00;;;;;;;2.47;1.15;;;15.20;99.90;;;;;;5048231;28;20049;-75
2022/07/10 10:38:45;;;;;;;2.60;0.90;;;15.60;99.90;;;;;;5031497;28;20037;-75
2022/07/10 10:41:24;;;;;;;1.85;0.65;;;15.80;99.90;;;;;;5051848;28;20044;-75
2022/07/10 10:44:09;;;;;;;3.30;1.27;;;15.80;99.90;;;;;;5036508;28;20445;-75
2022/07/10 10:46:36;;;;;;;3.03;1.00;;;16.50;99.90;;;;;;5047282;28;20049;-76
2022/07/10 10:49:08;;;;;;;2.88;1.20;;;16.50;99.90;;;;;;5034700;28;20056;-75
2022/07/10 10:52:10;;;;;;;5.25;1.30;;;15.80;99.90;;;;;;5035907;28;20211;-75
2022/07/10 10:54:57;;;;;;;2.72;1.10;;;15.60;99.90;;;;;;4992546;28;20590;-75
2022/07/10 10:57:32;;;;;;;3.95;1.40;;;15.50;99.90;;;;;;5049155;28;20198;-74
2022/07/10 10:59:59;;;;;;;3.33;1.10;;;16.00;99.90;;;;;;5051656;28;20036;-73
2022/07/10 11:02:34;;;;;;;3.00;1.08;;;16.00;99.90;;;;;;5019206;28;20052;-74
2022/07/10 11:05:18;;;;;;;3.38;1.15;;;16.10;99.90;;;;;;5052787;28;20041;-74
2022/07/10 11:07:58;;;;;;;4.43;1.10;;;16.20;99.90;;;;;;5047064;28;20131;-75
2022/07/10 11:10:33;;;;;;;2.40;0.90;;;16.20;99.90;;;;;;5053059;28;20086;-74
2022/07/10 11:13:04;;;;;;;3.65;0.90;;;16.10;99.90;;;;;;5048698;28;20095;-75
2022/07/10 11:15:32;;;;;;;1.85;0.82;;;16.70;99.90;;;;;;5052441;28;20076;-75
2022/07/10 11:18:15;;;;;;;3.70;1.02;;;16.90;99.90;;;;;;5047900;28;20056;-75
2022/07/10 11:20:49;;;;;;;5.18;1.25;;;17.00;99.90;;;;;;5052927;28;20045;-74
2022/07/10 11:23:51;;;;;;;3.47;1.13;;;16.40;99.90;;;;;;5051318;28;20039;-75
2022/07/10 11:26:34;;;;;;;4.05;1.20;;;16.50;99.90;;;;;;5052346;28;20071;-75
2022/07/10 11:29:05;;;;;;;3.47;1.10;;;16.80;99.90;;;;;;5036115;28;20102;-75
2022/07/10 11:31:37;;;;;;;2.08;0.90;;;16.10;99.90;;;;;;5035249;28;20052;-76
2022/07/10 11:34:03;;;;;;;2.47;0.82;;;16.40;99.90;;;;;;5044567;28;20056;-75
2022/07/10 11:36:31;;;;;;;;;;;16.40;99.90;;;;;;5051308;28;20492;-75
2022/07/10 11:39:04;;;;;;;2.60;1.00;;;16.80;99.90;;;;;;5043127;28;19967;-75
2022/07/10 11:41:30;;;;;;;2.50;1.00;;;16.80;99.90;;;;;;5035166;28;20136;-74
2022/07/10 11:43:57;;;;;;;;;;;17.20;99.90;;;;;;5017987;28;20104;-74
2022/07/10 11:46:28;;;;;;;3.00;0.90;;;16.70;99.90;;;;;;5051866;28;19970;-76
2022/07/10 11:48:56;;;;;;;3.42;0.80;;;17.30;99.90;;;;;;5051389;28;20451;-76
2022/07/10 11:51:33;;;;;;;3.95;0.85;;;17.00;99.90;;;;;;5050545;28;20048;-75
2022/07/10 11:54:18;;;;;;;3.63;0.90;;;17.20;99.90;;;;;;5051734;28;20488;-75
2022/07/10 11:56:52;;;;;;;2.53;0.88;;;16.80;99.90;;;;;;5052591;28;20044;-75
2022/07/10 11:59:23;;;;;;;2.42;0.80;;;17.40;99.90;;;;;;5051778;28;20045;-75
2022/07/10 12:01:50;;;;;;;2.95;0.90;;;17.00;99.90;;;;;;5055785;28;20048;-75
2022/07/10 12:04:19;;;;;;;3.38;0.80;;;17.20;99.90;;;;;;5056396;28;20067;-75
2022/07/10 12:06:49;;;;;;;2.45;0.90;;;16.90;99.90;;;;;;5051096;28;20052;-75
2022/07/10 12:09:17;;;;;;;1.73;0.70;;;16.60;99.90;;;;;;5063676;28;20121;-75
2022/07/10 12:11:55;;;;;;;1.55;0.80;;;16.90;99.90;;;;;;5051688;28;20488;-75
2022/07/10 12:14:22;;;;;;;3.38;0.90;;;16.70;99.90;;;;;;5035000;28;20056;-75
2022/07/10 12:16:51;;;;;;;3.28;1.10;;;17.30;99.90;;;;;;5051646;28;20128;-74
2022/07/10 12:19:19;;;;;;;2.45;0.80;;;17.10;99.90;;;;;;5050706;28;20052;-75
2022/07/10 12:21:48;;;;;;;2.72;0.93;;;17.10;99.90;;;;;;5034099;28;20037;-75
2022/07/10 12:24:19;;;;;;;2.92;0.77;;;17.20;99.90;;;;;;5050912;28;20149;-75
2022/07/10 12:26:45;;;;;;;4.22;1.40;;;17.20;99.90;;;;;;5050408;28;20052;-75
2022/07/10 12:29:12;;;;;;;;;;;17.00;99.90;;;;;;5061356;28;20067;-75
2022/07/10 12:31:38;;;;;;;3.38;1.02;;;16.70;99.90;;;;;;5055103;28;20645;-75
2022/07/10 12:34:05;;;;;;;2.72;1.00;;;16.70;99.90;;;;;;5062131;28;20076;-75
2022/07/10 12:36:51;;;;;;;2.97;0.98;;;16.60;99.90;;;;;;5034683;28;20423;-72
2022/07/10 12:39:22;;;;;;;2.50;0.80;;;16.70;99.90;;;;;;5049847;28;20068;-72
2022/07/10 12:42:02;;;;;;;2.97;0.88;;;17.00;99.90;;;;;;5050215;28;20110;-72
2022/07/10 12:44:54;;;;;;;5.82;1.00;;;16.70;99.90;;;;;;5050839;28;20747;-71
2022/07/10 12:47:21;;;;;;;3.58;0.95;;;16.90;99.90;;;;;;5037847;28;20609;-72
2022/07/10 12:49:50;;;;;;;2.08;0.70;;;16.60;99.90;;;;;;5034213;28;20045;-72
2022/07/10 12:52:20;;;;;;;2.03;0.70;;;16.30;99.90;;;;;;5050162;28;20459;-72
2022/07/10 12:54:45;;;;;;;1.65;0.68;;;16.70;99.90;;;;;;5037122;28;20048;-71
2022/07/10 12:57:12;;;;;;;1.17;0.68;;;16.20;99.90;;;;;;5050251;28;20033;-71
2022/07/10 12:59:38;;;;;;;3.15;0.80;;;16.00;99.90;;;;;;5060947;28;20067;-69
2022/07/10 13:02:18;;;;;;;1.92;0.65;;;16.00;99.90;;;;;;5033135;28;20056;-68
2022/07/10 13:04:56;;;;;;;1.95;0.80;;;16.10;99.90;;;;;;5047955;28;20526;-69